createdAt,value
2019-01-31T00:06:25.462Z,1.1
2019-01-31T00:22:58.902Z,1.1
2019-01-31T00:39:32.378Z,1.4
2019-01-31T00:56:05.974Z,1.4
2019-01-31T01:12:39.563Z,1.4
2019-01-31T01:29:13.193Z,1.4
2019-01-31T02:35:27.562Z,1.4
2019-01-31T02:52:01.013Z,1.1
2019-01-31T03:08:34.462Z,1.1
2019-01-31T03:25:07.826Z,1.1
2019-01-31T03:41:41.315Z,1.1
2019-01-31T03:58:14.734Z,1.1
2019-01-31T04:14:48.041Z,0.8
2019-01-31T04:31:21.264Z,0.8
2019-01-31T04:47:56.426Z,0.8
2019-01-31T05:04:27.745Z,0.8
2019-01-31T05:21:01.024Z,0.8
2019-01-31T05:37:34.231Z,0.8
2019-01-31T05:54:07.491Z,0.8
2019-01-31T06:10:40.555Z,0.2
2019-01-31T06:27:13.299Z,-0.2
2019-01-31T06:43:45.815Z,-0.8
2019-01-31T07:00:18.051Z,-1.1
2019-01-31T07:16:50.068Z,-1.4
2019-01-31T07:33:22.036Z,-1.1
2019-01-31T07:49:54.215Z,-1.1
2019-01-31T08:06:26.670Z,-0.8
2019-01-31T08:23:00.293Z,-0.5
2019-01-31T08:31:15.218Z,0.2
2019-01-31T08:39:31.785Z,0.8
2019-01-31T08:56:05.172Z,0.8
2019-01-31T09:04:21.615Z,0.2
2019-01-31T09:20:54.235Z,0.2
2019-01-31T09:37:27.459Z,0.5
2019-01-31T09:54:01.006Z,1.1
2019-01-31T10:10:34.669Z,1.1
2019-01-31T10:27:08.348Z,1.4
2019-01-31T10:43:42.014Z,1.1
2019-01-31T11:00:15.721Z,0.8
2019-01-31T11:16:49.045Z,1.1
2019-01-31T11:33:22.731Z,1.1
2019-01-31T11:49:56.409Z,1.1
2019-01-31T12:06:30.153Z,1.8
2019-01-31T12:23:04.029Z,2.1
2019-01-31T12:39:38.238Z,2.1
2019-01-31T12:56:12.358Z,2.1
2019-01-31T13:12:48.979Z,1.8
2019-01-31T13:29:20.367Z,1.4
2019-01-31T13:45:54.032Z,1.1
2019-01-31T14:02:27.791Z,1.4
2019-01-31T14:19:01.754Z,1.4
2019-01-31T14:35:35.614Z,1.8
2019-01-31T14:52:09.403Z,1.4
2019-01-31T15:08:43.144Z,1.4
2019-01-31T15:25:17.076Z,1.8
2019-01-31T15:41:50.980Z,1.4
2019-01-31T15:58:24.733Z,1.1
2019-01-31T16:14:58.451Z,1.1
2019-01-31T16:31:33.140Z,1.1
2019-01-31T16:48:05.768Z,1.1
2019-01-31T17:04:39.409Z,0.8
2019-01-31T17:21:13.572Z,0.8
2019-01-31T17:37:46.594Z,1.1
2019-01-31T17:54:20.488Z,1.1
2019-01-31T18:10:55.167Z,1.1
2019-01-31T18:27:28.413Z,1.1
2019-01-31T18:44:01.863Z,1.1
2019-01-31T19:00:38.194Z,1.1
2019-01-31T19:17:09.257Z,1.1
2019-01-31T19:33:42.416Z,1.1
2019-01-31T19:50:15.752Z,1.1
2019-01-31T20:06:49.120Z,1.1
2019-01-31T20:23:22.782Z,1.1
2019-01-31T20:39:56.318Z,1.1
2019-01-31T20:56:29.457Z,1.1
2019-01-31T21:13:02.609Z,0.8
2019-01-31T21:29:35.823Z,0.5
2019-01-31T21:46:08.670Z,0.2
2019-01-31T22:02:41.493Z,0.2
2019-01-31T22:19:14.105Z,-0.2
2019-01-31T22:35:46.930Z,0.2
2019-01-31T22:52:19.485Z,-0.2
2019-01-31T23:08:51.974Z,-0.5
2019-01-31T23:25:24.435Z,-0.5
2019-01-31T23:41:56.764Z,-0.8
2019-01-31T23:58:29.081Z,-0.8
